Time;durP1;ratioP1;P1;durP2;ratioP2;P2;SDS_P1;SDS_P2;PMS_P1;PMS_P2;Temp;Humidity;BMP_temperature;BMP_pressure;BME280_temperature;BME280_humidity;BME280_pressure;Samples;Min_cycle;Max_cycle;Signal;HPM_P1;HPM_P2
2023/09/09 00:02:01;;;;;;;10.02;4.20;;;;;;;16.98;100.00;100798.88;5197990;28;20048;-73
2023/09/09 00:04:32;;;;;;;8.93;4.10;;;;;;;16.93;100.00;100803.53;5197549;28;20562;-73
2023/09/09 00:07:03;;;;;;;7.75;3.95;;;;;;;16.88;100.00;100810.88;5197459;28;20056;-73
2023/09/09 00:09:33;;;;;;;6.78;4.10;;;;;;;16.86;100.00;100815.41;5196980;28;20032;-73
2023/09/09 00:12:04;;;;;;;11.45;4.72;;;;;;;16.71;100.00;100805.72;5179408;28;20029;-73
2023/09/09 00:14:34;;;;;;;5.50;3.63;;;;;;;16.73;100.00;100809.13;5196915;28;20049;-73
2023/09/09 00:17:04;;;;;;;6.75;4.07;;;;;;;16.73;100.00;100806.47;5180681;28;20156;-73
2023/09/09 00:19:35;;;;;;;8.35;4.43;;;;;;;16.70;100.00;100809.28;5196799;28;20041;-73
2023/09/09 00:22:06;;;;;;;8.50;4.32;;;;;;;16.58;100.00;100809.16;5196469;28;20029;-73
2023/09/09 00:24:36;;;;;;;6.18;3.72;;;;;;;16.66;100.00;100801.63;5196923;28;20256;-72
2023/09/09 00:27:06;;;;;;;12.30;4.60;;;;;;;16.47;100.00;100803.59;5194446;28;20437;-73
2023/09/09 00:29:37;;;;;;;10.52;3.95;;;;;;;16.43;100.00;100799.44;5195710;28;20403;-73
2023/09/09 00:32:07;;;;;;;7.53;4.28;;;;;;;16.36;100.00;100801.56;5180252;28;20034;-73
2023/09/09 00:34:37;;;;;;;6.35;4.25;;;;;;;16.31;100.00;100805.38;5180952;28;20530;-73
2023/09/09 00:37:08;;;;;;;6.00;3.80;;;;;;;16.23;100.00;100805.78;5183848;28;20033;-73
2023/09/09 00:39:38;;;;;;;7.53;4.32;;;;;;;16.26;100.00;100799.50;5195648;28;20059;-73
2023/09/09 00:42:09;;;;;;;6.85;4.18;;;;;;;16.49;100.00;100799.97;5219008;23;20430;-73
2023/09/09 00:44:39;;;;;;;6.28;4.07;;;;;;;16.40;100.00;100800.47;5181210;28;20024;-73
2023/09/09 00:47:09;;;;;;;7.22;4.15;;;;;;;16.48;100.00;100803.53;5192797;28;20032;-73
2023/09/09 00:49:40;;;;;;;9.07;4.43;;;;;;;16.42;100.00;100793.31;5177291;28;20044;-73
2023/09/09 00:52:10;;;;;;;7.65;4.13;;;;;;;16.54;100.00;100802.34;5204219;28;20021;-73
2023/09/09 00:54:40;;;;;;;6.80;3.78;;;;;;;16.66;100.00;100796.34;5216390;28;20033;-74
2023/09/09 00:57:11;;;;;;;6.70;4.13;;;;;;;16.56;100.00;100800.47;5220584;28;20020;-73
2023/09/09 00:59:41;;;;;;;7.10;3.92;;;;;;;16.43;100.00;100789.75;5214940;28;20094;-73
2023/09/09 01:02:12;;;;;;;8.73;3.85;;;;;;;16.32;100.00;100788.59;5216277;28;20099;-73
2023/09/09 01:04:42;;;;;;;7.15;3.97;;;;;;;16.61;100.00;100793.13;5214945;28;20048;-73
2023/09/09 01:07:13;;;;;;;8.70;3.90;;;;;;;16.51;100.00;100790.16;5199589;28;20139;-73
2023/09/09 01:09:43;;;;;;;9.48;4.38;;;;;;;16.35;100.00;100791.97;5219592;28;20029;-73
2023/09/09 01:12:13;;;;;;;6.32;4.38;;;;;;;16.23;100.00;100794.41;5220505;28;20039;-73
2023/09/09 01:14:44;;;;;;;5.50;3.95;;;;;;;16.27;100.00;100790.66;5219573;28;20470;-73
2023/09/09 01:17:15;;;;;;;7.03;4.30;;;;;;;16.21;100.00;100789.19;5221683;28;20497;-73
2023/09/09 01:19:46;;;;;;;7.40;4.38;;;;;;;16.24;100.00;100786.38;5201647;28;20028;-73
2023/09/09 01:22:18;;;;;;;8.13;4.55;;;;;;;16.32;100.00;100791.22;5198766;28;20036;-73
2023/09/09 01:24:49;;;;;;;7.72;4.25;;;;;;;16.26;100.00;100786.31;5218685;28;20054;-73
2023/09/09 01:27:19;;;;;;;8.45;4.60;;;;;;;16.22;100.00;100785.63;5220609;28;20017;-73
2023/09/09 01:29:49;;;;;;;7.68;4.45;;;;;;;15.94;100.00;100782.81;5219374;28;20029;-73
2023/09/09 01:32:19;;;;;;;5.80;3.83;;;;;;;15.93;100.00;100791.66;5220419;28;20024;-73
2023/09/09 01:34:51;;;;;;;6.55;4.13;;;;;;;15.81;100.00;100788.78;5202065;28;20024;-73
2023/09/09 01:37:21;;;;;;;6.50;3.85;;;;;;;15.92;100.00;100784.69;5220951;28;20486;-74
2023/09/09 01:39:52;;;;;;;6.75;4.55;;;;;;;15.80;100.00;100787.09;5219550;28;20043;-72
2023/09/09 01:42:22;;;;;;;6.45;3.95;;;;;;;15.83;100.00;100785.16;5201822;28;20074;-72
2023/09/09 01:44:52;;;;;;;5.53;3.63;;;;;;;15.90;100.00;100786.50;5221800;28;20035;-73
2023/09/09 01:47:23;;;;;;;5.28;3.75;;;;;;;15.79;100.00;100790.66;5220480;28;20468;-72
2023/09/09 01:49:53;;;;;;;7.90;4.50;;;;;;;15.58;100.00;100787.41;5219149;28;20033;-73
2023/09/09 01:52:23;;;;;;;6.97;5.00;;;;;;;15.58;100.00;100786.53;5219942;28;20068;-73
2023/09/09 01:54:54;;;;;;;7.10;4.60;;;;;;;15.35;100.00;100789.53;5221056;28;20024;-72
2023/09/09 01:57:26;;;;;;;7.93;4.93;;;;;;;15.40;100.00;100788.34;5221752;28;20061;-73
2023/09/09 01:59:58;;;;;;;8.80;4.93;;;;;;;15.35;100.00;100789.53;5219803;28;20025;-73
2023/09/09 02:02:28;;;;;;;11.48;5.18;;;;;;;15.41;100.00;100786.56;5218886;28;20393;-71
2023/09/09 02:04:58;;;;;;;8.90;5.03;;;;;;;15.40;100.00;100788.34;5201912;28;20032;-73
2023/09/09 02:07:28;;;;;;;9.10;4.90;;;;;;;15.35;100.00;100787.72;5221625;28;20504;-71
2023/09/09 02:09:59;;;;;;;14.90;5.97;;;;;;;15.31;100.00;100780.06;5220047;28;20029;-72
2023/09/09 02:12:30;;;;;;;8.02;5.13;;;;;;;15.32;100.00;100782.63;5218814;28;20033;-71
2023/09/09 02:15:00;;;;;;;10.02;5.55;;;;;;;15.19;100.00;100778.88;5219623;28;20115;-73
2023/09/09 02:17:30;;;;;;;6.95;4.88;;;;;;;15.13;100.00;100776.56;5219629;28;20268;-73
2023/09/09 02:20:00;;;;;;;8.70;4.88;;;;;;;15.20;100.00;100780.56;5218118;28;20037;-73
2023/09/09 02:22:31;;;;;;;9.77;5.50;;;;;;;14.99;100.00;100776.41;5218446;28;20420;-72
2023/09/09 02:25:02;;;;;;;8.45;5.00;;;;;;;14.85;100.00;100784.13;5220197;28;20033;-73
2023/09/09 02:27:33;;;;;;;7.88;5.13;;;;;;;14.80;100.00;100784.44;5219162;28;20111;-73
2023/09/09 02:30:04;;;;;;;9.52;5.47;;;;;;;14.83;100.00;100782.53;5219545;28;20051;-73
2023/09/09 02:32:34;;;;;;;7.63;4.90;;;;;;;15.07;100.00;100782.16;5218010;28;20080;-73
2023/09/09 02:35:07;;;;;;;9.25;5.72;;;;;;;15.22;100.00;100783.16;5219459;28;20028;-73
2023/09/09 02:37:37;;;;;;;9.75;5.43;;;;;;;15.26;100.00;100782.91;5217679;28;21244;-73
2023/09/09 02:40:08;;;;;;;9.30;5.70;;;;;;;15.30;100.00;100778.34;5218702;28;20116;-73
2023/09/09 02:42:39;;;;;;;8.02;4.88;;;;;;;15.25;100.00;100778.59;5218257;28;20299;-72
2023/09/09 02:45:09;;;;;;;10.30;5.47;;;;;;;15.35;100.00;100781.63;5218607;28;20036;-73
2023/09/09 02:47:39;;;;;;;10.02;6.25;;;;;;;15.22;100.00;100781.34;5218667;28;20024;-73
2023/09/09 02:50:10;;;;;;;12.65;6.43;;;;;;;15.14;100.00;100780.03;5201255;28;20025;-73
2023/09/09 02:52:40;;;;;;;9.82;6.38;;;;;;;15.19;100.00;100789.41;5219219;28;20107;-73
2023/09/09 02:55:11;;;;;;;9.02;6.07;;;;;;;15.03;100.00;100777.94;5219132;28;20555;-73
2023/09/09 02:57:41;;;;;;;10.68;6.38;;;;;;;14.99;100.00;100773.78;5221577;28;20036;-73
2023/09/09 03:00:13;;;;;;;8.07;5.72;;;;;;;15.00;100.00;100772.84;5218047;28;20032;-73
2023/09/09 03:02:43;;;;;;;10.75;6.75;;;;;;;15.05;100.00;100765.56;5218107;28;20033;-73
2023/09/09 03:05:13;;;;;;;10.93;6.63;;;;;;;14.95;100.00;100771.38;5219130;28;20040;-73
2023/09/09 03:07:48;;;;;;;9.93;6.05;;;;;;;15.03;100.00;100769.22;5218362;28;20119;-73
2023/09/09 03:10:18;;;;;;;10.90;6.75;;;;;;;15.13;100.00;100768.66;5216314;28;20108;-72
2023/09/09 03:12:49;;;;;;;9.70;6.07;;;;;;;15.32;100.00;100774.72;5218435;28;20120;-73
2023/09/09 03:15:19;;;;;;;12.80;6.97;;;;;;;15.31;100.00;100774.78;5217661;28;20025;-72
2023/09/09 03:17:49;;;;;;;11.05;6.50;;;;;;;15.38;100.00;100777.03;5218700;28;20476;-73
2023/09/09 03:20:20;;;;;;;10.63;6.68;;;;;;;15.45;100.00;100775.81;5218038;28;20107;-72
2023/09/09 03:22:50;;;;;;;9.55;6.60;;;;;;;15.41;100.00;100774.25;5199985;28;20370;-74
2023/09/09 03:25:20;;;;;;;11.00;6.95;;;;;;;15.52;100.00;100764.00;5218950;28;20029;-72
2023/09/09 03:27:51;;;;;;;12.63;7.32;;;;;;;15.41;100.00;100769.00;5220276;28;20452;-73
2023/09/09 03:30:22;;;;;;;12.15;6.82;;;;;;;15.46;100.00;100763.47;5218605;28;20025;-73
2023/09/09 03:32:52;;;;;;;13.57;6.85;;;;;;;15.50;100.00;100767.66;5217533;28;20037;-72
2023/09/09 03:35:22;;;;;;;11.50;7.15;;;;;;;15.52;100.00;100765.78;5218839;28;20142;-73
2023/09/09 03:37:53;;;;;;;15.38;7.57;;;;;;;15.56;100.00;100768.16;5217707;28;20021;-73
2023/09/09 03:40:23;;;;;;;11.18;6.47;;;;;;;15.62;100.00;100767.88;5202591;28;20556;-73
2023/09/09 03:42:53;;;;;;;10.43;6.80;;;;;;;15.59;100.00;100765.41;5218841;28;20036;-73
2023/09/09 03:45:23;;;;;;;11.57;6.65;;;;;;;15.53;100.00;100773.59;5218617;28;20040;-74
2023/09/09 03:47:55;;;;;;;11.25;6.63;;;;;;;15.55;100.00;100771.72;5216623;28;20389;-73
2023/09/09 03:50:25;;;;;;;13.30;7.50;;;;;;;15.48;100.00;100762.47;5217853;28;20023;-73
2023/09/09 03:52:55;;;;;;;15.32;7.80;;;;;;;15.49;100.00;100765.94;5217082;28;20931;-74
2023/09/09 03:55:26;;;;;;;13.52;7.13;;;;;;;15.51;100.00;100767.56;5219786;28;20090;-74
2023/09/09 03:57:56;;;;;;;8.57;6.15;;;;;;;15.61;100.00;100771.44;5217436;28;20021;-74
2023/09/09 04:00:26;;;;;;;10.98;6.60;;;;;;;15.59;100.00;100764.53;5219997;28;20497;-73
2023/09/09 04:02:57;;;;;;;15.50;7.07;;;;;;;15.37;100.00;100767.44;5217110;28;20060;-73
2023/09/09 04:05:27;;;;;;;11.77;7.47;;;;;;;15.31;100.00;100777.44;5219595;28;20029;-73
2023/09/09 04:08:00;;;;;;;12.45;6.80;;;;;;;15.20;100.00;100774.47;5199726;28;20490;-74
2023/09/09 04:10:31;;;;;;;11.05;7.35;;;;;;;15.16;100.00;100776.41;5217080;28;20033;-73
2023/09/09 04:13:01;;;;;;;12.23;7.75;;;;;;;15.18;100.00;100771.91;5217817;28;20474;-74
2023/09/09 04:15:31;;;;;;;11.45;7.70;;;;;;;15.09;100.00;100772.41;5216756;28;20056;-73
2023/09/09 04:18:02;;;;;;;12.77;8.13;;;;;;;14.99;100.00;100763.25;5217490;28;20029;-73
2023/09/09 04:20:32;;;;;;;12.55;7.50;;;;;;;14.93;100.00;100760.94;5215428;28;20111;-73
2023/09/09 04:23:03;;;;;;;12.95;7.78;;;;;;;14.94;100.00;100772.28;5219223;28;20055;-72
2023/09/09 04:25:33;;;;;;;10.52;7.15;;;;;;;14.99;100.00;100771.16;5216879;28;20044;-72
2023/09/09 04:28:05;;;;;;;14.23;8.10;;;;;;;15.03;100.00;100777.94;5218192;28;20033;-74
2023/09/09 04:30:39;;;;;;;11.50;7.32;;;;;;;15.05;100.00;100780.50;5200034;28;20350;-72
2023/09/09 04:33:11;;;;;;;11.02;7.63;;;;;;;15.15;100.00;100774.69;5216346;28;20485;-73
2023/09/09 04:35:42;;;;;;;13.50;7.10;;;;;;;15.15;100.00;100774.69;5217077;28;20025;-73
2023/09/09 04:38:13;;;;;;;15.15;7.72;;;;;;;15.12;100.00;100766.97;5217487;28;20028;-73
2023/09/09 04:40:43;;;;;;;10.93;6.82;;;;;;;15.12;100.00;100774.88;5218647;28;20029;-72
2023/09/09 04:43:13;;;;;;;15.02;7.43;;;;;;;15.11;100.00;100777.56;5217397;28;20025;-72
2023/09/09 04:45:44;;;;;;;13.23;7.43;;;;;;;15.12;100.00;100780.13;5201380;28;20025;-74
2023/09/09 04:48:14;;;;;;;12.15;7.35;;;;;;;15.08;100.00;100783.84;5217104;28;20567;-73
2023/09/09 04:50:44;;;;;;;15.73;8.05;;;;;;;14.98;100.00;100779.97;5216083;28;20035;-73
2023/09/09 04:53:15;;;;;;;12.10;8.05;;;;;;;14.93;100.00;100783.75;5219266;28;20485;-74
2023/09/09 04:55:45;;;;;;;13.00;7.85;;;;;;;15.03;100.00;100788.47;5216724;28;20024;-74
2023/09/09 04:58:15;;;;;;;12.45;7.78;;;;;;;15.14;100.00;100786.16;5217947;28;20021;-73
2023/09/09 05:00:45;;;;;;;15.48;8.45;;;;;;;15.13;100.00;100787.09;5216559;28;20027;-73
2023/09/09 05:03:16;;;;;;;15.30;7.93;;;;;;;15.18;100.00;100792.97;5218732;28;20024;-73
2023/09/09 05:05:46;;;;;;;12.25;7.72;;;;;;;15.15;100.00;100793.13;5203229;28;20865;-73
2023/09/09 05:08:16;;;;;;;12.68;7.57;;;;;;;15.29;100.00;100789.81;5218816;28;20033;-73
2023/09/09 05:10:47;;;;;;;15.93;8.00;;;;;;;15.18;100.00;100792.97;5218951;28;20037;-74
2023/09/09 05:13:17;;;;;;;13.73;8.00;;;;;;;15.19;100.00;100793.84;5220452;28;20029;-73
2023/09/09 05:15:47;;;;;;;14.38;9.18;;;;;;;15.19;100.00;100785.94;5219349;28;20029;-73
2023/09/09 05:18:17;;;;;;;14.20;8.63;;;;;;;15.22;100.00;100797.16;5204122;28;20078;-74
2023/09/09 05:20:48;;;;;;;13.27;7.70;;;;;;;15.33;100.00;100797.50;5218964;28;20112;-73
2023/09/09 05:23:18;;;;;;;14.18;8.68;;;;;;;15.33;100.00;100797.50;5217628;28;20036;-73
2023/09/09 05:25:49;;;;;;;12.30;8.25;;;;;;;15.51;100.00;100796.53;5216785;28;20025;-74
2023/09/09 05:28:19;;;;;;;14.63;8.38;;;;;;;15.44;100.00;100795.16;5217373;28;20160;-74
2023/09/09 05:30:49;;;;;;;14.32;8.43;;;;;;;15.53;100.00;100793.84;5216280;28;20040;-74
2023/09/09 05:33:20;;;;;;;14.10;9.32;;;;;;;15.52;100.00;100792.97;5217240;28;20111;-74
2023/09/09 05:35:50;;;;;;;15.70;8.55;;;;;;;15.63;100.00;100790.63;5216113;28;20028;-73
2023/09/09 05:38:21;;;;;;;14.68;8.48;;;;;;;15.74;100.00;100787.44;5219393;28;20029;-72
2023/09/09 05:40:51;;;;;;;12.05;8.27;;;;;;;15.88;100.00;100791.03;5219320;28;20493;-73
2023/09/09 05:43:21;;;;;;;14.80;8.18;;;;;;;15.94;100.00;100796.00;5219183;28;20027;-73
2023/09/09 05:45:55;;;;;;;12.75;8.18;;;;;;;16.08;100.00;100792.59;5219462;28;20079;-73
2023/09/09 05:48:26;;;;;;;14.98;8.05;;;;;;;16.15;100.00;100800.09;5218487;28;20037;-73
2023/09/09 05:50:56;;;;;;;10.73;7.15;;;;;;;16.23;100.00;100800.50;5218952;28;20060;-74
2023/09/09 05:53:26;;;;;;;12.18;8.07;;;;;;;16.27;100.00;100799.44;5225608;28;20043;-73
2023/09/09 05:55:57;;;;;;;14.73;8.27;;;;;;;16.16;100.00;100804.44;5220970;28;20033;-73
2023/09/09 05:58:27;;;;;;;13.57;8.85;;;;;;;16.34;100.00;100794.63;5221147;28;20116;-73
2023/09/09 06:00:57;;;;;;;15.63;8.50;;;;;;;16.57;100.00;100797.72;5202723;28;20028;-74
2023/09/09 06:03:29;;;;;;;13.73;8.05;;;;;;;16.78;100.00;100801.81;5220579;28;20071;-72
2023/09/09 06:05:59;;;;;;;11.80;7.60;;;;;;;16.92;100.00;100799.19;5220910;28;20028;-73
2023/09/09 06:08:31;;;;;;;11.15;7.45;;;;;;;17.01;100.00;100799.50;5220203;28;20047;-72
2023/09/09 06:11:01;;;;;;;13.48;8.50;;;;;;;17.03;100.00;100802.09;5220041;28;20094;-74
2023/09/09 06:13:32;;;;;;;15.32;8.55;;;;;;;17.02;100.00;100795.09;5220133;28;20028;-74
2023/09/09 06:16:02;;;;;;;14.52;8.00;;;;;;;17.06;100.00;100796.63;5220306;28;20704;-74
2023/09/09 06:18:33;;;;;;;15.43;8.73;;;;;;;17.21;100.00;100801.88;5215562;28;20474;-73
2023/09/09 06:21:03;;;;;;;11.75;8.60;;;;;;;17.26;100.00;100797.16;5199279;28;20029;-73
2023/09/09 06:23:35;;;;;;;13.32;8.23;;;;;;;17.41;100.00;100803.34;5204621;28;20119;-74
2023/09/09 06:26:05;;;;;;;14.95;7.80;;;;;;;17.54;100.00;100806.94;5205757;28;20037;-72
2023/09/09 06:28:35;;;;;;;14.88;8.30;;;;;;;17.46;100.00;100801.28;5219524;28;20033;-73
2023/09/09 06:31:07;;;;;;;11.73;7.73;;;;;;;17.47;100.00;100806.47;5218902;28;20226;-73
2023/09/09 06:33:37;;;;;;;12.35;8.07;;;;;;;17.48;100.00;100804.69;5216609;28;20374;-73
2023/09/09 06:36:07;;;;;;;11.82;7.38;;;;;;;17.66;100.00;100809.69;5219920;28;20116;-73
2023/09/09 06:38:38;;;;;;;13.93;7.00;;;;;;;17.84;100.00;100805.94;5219800;28;20044;-72
2023/09/09 06:41:08;;;;;;;12.48;7.53;;;;;;;18.05;100.00;100803.75;5219729;28;20036;-73
2023/09/09 06:43:39;;;;;;;11.05;7.32;;;;;;;18.17;100.00;100806.47;5471144;22;20228;-71
2023/09/09 06:46:09;;;;;;;11.93;7.35;;;;;;;18.36;100.00;100808.84;5178618;28;20494;-72
2023/09/09 06:48:39;;;;;;;12.88;7.72;;;;;;;18.40;100.00;100818.28;5198073;28;20018;-72
2023/09/09 06:51:10;;;;;;;11.45;7.07;;;;;;;18.58;100.00;100814.47;5196913;28;20030;-72
2023/09/09 06:53:40;;;;;;;13.30;7.60;;;;;;;18.91;100.00;100815.78;5185588;28;20471;-72
2023/09/09 06:56:10;;;;;;;12.38;7.07;;;;;;;20.28;95.32;100810.59;5180434;28;20034;-72
2023/09/09 06:58:40;;;;;;;10.13;6.45;;;;;;;21.30;89.75;100810.94;5165006;28;20037;-72
2023/09/09 07:01:11;;;;;;;8.25;5.60;;;;;;;22.76;80.92;100804.50;5158495;28;20029;-71
2023/09/09 07:03:42;;;;;;;9.20;4.93;;;;;;;24.88;74.92;100800.06;5182530;28;20125;-72
2023/09/09 07:06:12;;;;;;;9.55;5.13;;;;;;;26.25;68.51;100806.63;5179617;28;20022;-73
2023/09/09 07:08:43;;;;;;;6.65;4.68;;;;;;;26.91;66.18;100795.53;5171524;28;20033;-73
2023/09/09 07:11:13;;;;;;;7.15;4.78;;;;;;;28.03;65.53;100794.59;5167008;28;20338;-73
2023/09/09 07:13:44;;;;;;;6.28;4.22;;;;;;;27.54;65.72;100800.66;5170991;28;20041;-73
2023/09/09 07:16:16;;;;;;;7.93;4.37;;;;;;;27.26;65.55;100792.88;5186266;28;20018;-73
2023/09/09 07:18:46;;;;;;;6.25;3.90;;;;;;;28.72;62.57;100787.16;5185060;28;20812;-71
2023/09/09 07:21:16;;;;;;;6.60;3.87;;;;;;;29.14;61.20;100783.38;5184080;28;20021;-73
2023/09/09 07:23:47;;;;;;;6.67;4.30;;;;;;;29.41;61.20;100790.28;5187662;28;20052;-73
2023/09/09 07:26:18;;;;;;;6.28;3.83;;;;;;;29.46;59.90;100785.22;5169712;28;20495;-73
2023/09/09 07:28:48;;;;;;;5.68;4.22;;;;;;;29.28;61.34;100790.81;5187957;28;20045;-73
2023/09/09 07:31:18;;;;;;;6.05;3.80;;;;;;;30.33;57.81;100789.59;5183876;28;20041;-73
2023/09/09 07:33:49;;;;;;;8.13;3.93;;;;;;;29.85;59.14;100787.03;5188528;28;20520;-73
2023/09/09 07:36:19;;;;;;;6.27;4.20;;;;;;;30.50;58.45;100784.97;5185780;28;20304;-73
2023/09/09 07:38:51;;;;;;;6.32;4.10;;;;;;;30.52;57.47;100793.72;5173142;28;20289;-73
2023/09/09 07:41:21;;;;;;;10.07;3.80;;;;;;;31.30;55.53;100788.88;5185254;28;20492;-73
2023/09/09 07:43:51;;;;;;;6.18;3.80;;;;;;;30.59;58.11;100795.56;5171554;28;20030;-73
2023/09/09 07:46:22;;;;;;;5.40;3.73;;;;;;;30.78;56.05;100789.72;5187683;28;20030;-71
2023/09/09 07:48:52;;;;;;;5.70;3.20;;;;;;;31.38;55.87;100794.19;5185189;28;20288;-71
2023/09/09 07:51:22;;;;;;;5.47;3.53;;;;;;;30.67;57.84;100798.25;5168095;28;20296;-71
2023/09/09 07:53:53;;;;;;;5.78;3.13;;;;;;;32.41;55.59;100785.19;5187397;28;20677;-71
2023/09/09 07:56:23;;;;;;;5.50;3.43;;;;;;;31.50;56.95;100792.72;5169318;28;20410;-72
2023/09/09 07:58:53;;;;;;;6.07;3.00;;;;;;;32.11;55.80;100781.63;5189994;28;20280;-72
2023/09/09 08:01:24;;;;;;;4.10;2.83;;;;;;;30.04;58.89;100794.78;5187756;28;20037;-73
2023/09/09 08:03:54;;;;;;;5.63;2.97;;;;;;;31.05;58.67;100787.31;5190491;28;20495;-72
2023/09/09 08:06:24;;;;;;;4.63;3.20;;;;;;;32.36;53.75;100779.50;5185621;28;20426;-73
2023/09/09 08:08:55;;;;;;;5.47;2.80;;;;;;;32.75;54.47;100780.00;5169188;28;20287;-74
2023/09/09 08:11:25;;;;;;;6.40;3.00;;;;;;;33.66;51.97;100781.72;5182597;28;20552;-73
2023/09/09 08:13:55;;;;;;;4.37;2.60;;;;;;;34.31;51.03;100784.91;5185926;28;20522;-73
2023/09/09 08:16:26;;;;;;;6.03;2.90;;;;;;;34.34;51.24;100782.59;5165924;28;20038;-74
2023/09/09 08:18:57;;;;;;;6.87;2.93;;;;;;;33.75;53.27;100769.69;5169543;28;20037;-72
2023/09/09 08:21:27;;;;;;;3.90;2.58;;;;;;;34.26;52.22;100771.06;5183116;28;20042;-71
2023/09/09 08:24:01;;;;;;;4.87;2.83;;;;;;;31.19;58.12;100783.06;5189450;28;20032;-72
2023/09/09 08:26:31;;;;;;;5.78;2.63;;;;;;;32.52;55.70;100780.09;5183718;28;20808;-73
2023/09/09 08:29:02;;;;;;;5.40;2.73;;;;;;;32.46;56.94;100786.28;5167321;28;20033;-73
2023/09/09 08:31:35;;;;;;;4.63;3.00;;;;;;;33.46;54.95;100778.03;5169399;28;20041;-73
2023/09/09 08:34:05;;;;;;;5.75;2.92;;;;;;;33.87;53.23;100778.97;5191944;28;20132;-72
2023/09/09 08:36:35;;;;;;;5.17;2.90;;;;;;;32.74;55.74;100783.75;5190429;28;20125;-73
2023/09/09 08:39:05;;;;;;;5.73;3.00;;;;;;;34.42;54.40;100785.16;5191399;28;20442;-72
2023/09/09 08:41:58;;;;;;;5.23;3.13;;;;;;;34.77;53.39;100785.91;5191540;28;20087;-73
2023/09/09 08:44:48;;;;;;;4.32;2.80;;;;;;;34.35;54.32;100792.41;5169010;28;20276;-73
2023/09/09 08:47:20;;;;;;;4.65;2.42;;;;;;;33.61;55.42;100795.84;5184721;28;20026;-73
2023/09/09 08:49:52;;;;;;;3.65;2.67;;;;;;;33.95;52.77;100798.63;5186992;28;20024;-72
2023/09/09 08:52:27;;;;;;;5.68;2.90;;;;;;;33.33;55.16;100792.28;5184684;28;20081;-72
2023/09/09 08:54:57;;;;;;;5.60;2.97;;;;;;;34.62;53.82;100796.91;5183971;28;20068;-72
2023/09/09 08:57:29;;;;;;;5.13;2.95;;;;;;;33.19;55.97;100797.75;5185400;28;20021;-71
2023/09/09 09:00:01;;;;;;;4.45;2.38;;;;;;;33.18;56.43;100799.59;5182758;28;20439;-72
2023/09/09 09:02:33;;;;;;;5.82;2.55;;;;;;;34.68;53.54;100787.16;5184268;28;20049;-73
2023/09/09 09:05:04;;;;;;;7.43;2.90;;;;;;;33.56;54.30;100795.63;5165488;28;20325;-73
2023/09/09 09:07:35;;;;;;;4.72;2.70;;;;;;;33.39;55.16;100796.94;5185679;28;20041;-73
2023/09/09 09:10:06;;;;;;;4.35;2.47;;;;;;;34.47;54.99;100792.66;5182614;28;20091;-73
2023/09/09 09:12:40;;;;;;;3.97;2.60;;;;;;;35.11;51.99;100795.59;5181433;28;20079;-73
2023/09/09 09:15:10;;;;;;;6.63;2.73;;;;;;;34.02;51.87;100793.25;5186339;28;20060;-73
2023/09/09 09:17:42;;;;;;;6.78;2.70;;;;;;;33.87;54.29;100798.78;5169086;28;20498;-73
2023/09/09 09:20:27;;;;;;;3.65;2.38;;;;;;;33.07;57.61;100799.28;5166757;28;20069;-73
2023/09/09 09:23:04;;;;;;;4.68;2.80;;;;;;;32.59;55.82;100791.03;5180745;28;20449;-72
2023/09/09 09:25:46;;;;;;;4.80;2.70;;;;;;;30.91;60.50;100800.78;5175577;28;20030;-73
2023/09/09 09:28:16;;;;;;;7.32;2.88;;;;;;;31.17;59.86;100799.44;5160134;28;20061;-73
2023/09/09 09:30:47;;;;;;;3.70;2.60;;;;;;;30.59;62.15;100795.56;5181556;28;22233;-73
2023/09/09 09:33:23;;;;;;;5.53;2.80;;;;;;;30.24;61.57;100790.66;5179900;28;20316;-73
2023/09/09 09:35:53;;;;;;;7.25;2.95;;;;;;;30.60;60.79;100789.16;5185173;28;20029;-71
2023/09/09 09:38:24;;;;;;;5.13;2.75;;;;;;;30.33;61.08;100794.16;5165355;28;20451;-72
2023/09/09 09:40:59;;;;;;;7.43;2.75;;;;;;;29.77;60.91;100783.53;5181056;28;20036;-71
2023/09/09 09:43:31;;;;;;;10.95;3.00;;;;;;;30.01;62.73;100787.00;5182026;28;20049;-72
2023/09/09 09:46:18;;;;;;;6.85;2.50;;;;;;;30.19;63.18;100784.09;5185371;28;20044;-72
2023/09/09 09:48:49;;;;;;;4.63;2.42;;;;;;;30.06;63.82;100776.56;5193603;28;20078;-71
2023/09/09 09:51:19;;;;;;;7.57;2.90;;;;;;;29.57;62.00;100780.34;5172201;28;20033;-72
2023/09/09 09:53:51;;;;;;;5.38;2.88;;;;;;;29.60;63.14;100776.47;5178391;28;20028;-72
2023/09/09 09:56:21;;;;;;;4.72;2.85;;;;;;;29.68;63.25;100771.06;5179890;28;20021;-72
2023/09/09 09:58:54;;;;;;;4.25;2.60;;;;;;;29.63;63.54;100774.28;5167586;28;20099;-71
2023/09/09 10:01:24;;;;;;;20.55;3.40;;;;;;;29.52;62.74;100777.34;5187958;28;20095;-72
2023/09/09 10:04:04;;;;;;;30.98;4.10;;;;;;;30.02;63.04;100775.19;5191247;28;20025;-71
2023/09/09 10:06:38;;;;;;;6.80;2.70;;;;;;;29.90;63.23;100778.44;5171014;28;20021;-72
2023/09/09 10:09:27;;;;;;;12.63;2.92;;;;;;;29.64;61.99;100775.13;5185130;28;20029;-72
2023/09/09 10:12:10;;;;;;;5.03;2.72;;;;;;;29.51;62.23;100778.34;5174385;28;20577;-73
2023/09/09 10:14:41;;;;;;;16.13;3.67;;;;;;;29.77;63.03;100780.81;5186568;28;20042;-72
2023/09/09 10:17:13;;;;;;;13.02;3.30;;;;;;;29.78;64.32;100777.94;5178537;28;20106;-72
2023/09/09 10:19:44;;;;;;;7.75;2.40;;;;;;;29.99;66.76;100772.84;5183045;28;20223;-73
2023/09/09 10:22:15;;;;;;;9.13;2.85;;;;;;;29.76;66.29;100776.44;5192362;28;20033;-72
2023/09/09 10:24:46;;;;;;;7.40;2.88;;;;;;;29.90;64.75;100771.19;5188727;28;21325;-72
2023/09/09 10:27:17;;;;;;;8.65;3.97;;;;;;;29.51;63.57;100767.56;5189453;28;20096;-72
2023/09/09 10:29:49;;;;;;;6.55;3.30;;;;;;;29.68;63.68;100768.38;5187136;28;20036;-72
2023/09/09 10:32:21;;;;;;;6.70;3.22;;;;;;;29.54;64.33;100764.53;5184946;28;20026;-72
2023/09/09 10:34:53;;;;;;;5.28;3.20;;;;;;;29.67;65.31;100764.00;5184467;28;20292;-72
2023/09/09 10:37:25;;;;;;;6.60;3.25;;;;;;;29.70;64.62;100755.56;5186627;28;20395;-72
2023/09/09 10:39:55;;;;;;;8.23;3.38;;;;;;;29.62;64.94;100750.19;5171613;28;20038;-72
2023/09/09 10:42:26;;;;;;;6.57;3.47;;;;;;;29.54;67.09;100755.63;5187043;28;20478;-72
2023/09/09 10:45:26;;;;;;;7.28;2.97;;;;;;;29.36;63.94;100757.59;5174880;28;20033;-72
2023/09/09 10:48:03;;;;;;;6.10;3.20;;;;;;;29.42;62.46;100748.84;5191124;28;20041;-72
2023/09/09 10:50:44;;;;;;;7.88;3.58;;;;;;;29.54;62.70;100759.13;5186863;28;20057;-72
2023/09/09 10:53:25;;;;;;;8.50;3.60;;;;;;;29.46;61.65;100755.56;5164874;28;20017;-71
2023/09/09 10:56:21;;;;;;;5.45;2.80;;;;;;;29.27;60.25;100755.94;5180790;28;20399;-71
2023/09/09 10:58:52;;;;;;;8.35;3.40;;;;;;;29.33;62.32;100755.25;5187526;28;20036;-72
2023/09/09 11:01:27;;;;;;;7.03;2.92;;;;;;;29.24;59.44;100754.41;5181052;28;20025;-72
2023/09/09 11:03:57;;;;;;;4.47;2.60;;;;;;;29.24;59.68;100751.72;5167346;28;20068;-71
2023/09/09 11:06:29;;;;;;;8.20;2.88;;;;;;;29.28;59.68;100745.00;5181305;28;20088;-70
2023/09/09 11:09:02;;;;;;;7.20;2.80;;;;;;;29.42;60.57;100749.69;5179792;28;20549;-71
2023/09/09 11:11:35;;;;;;;5.90;2.63;;;;;;;29.31;58.83;100749.19;5155048;28;20729;-73
2023/09/09 11:14:07;;;;;;;4.65;2.75;;;;;;;29.33;59.14;100748.03;5165105;28;20088;-72
2023/09/09 11:16:41;;;;;;;6.38;2.70;;;;;;;29.27;62.67;100750.56;5180626;28;20069;-72
2023/09/09 11:19:13;;;;;;;5.88;2.72;;;;;;;29.28;62.18;100752.22;5176509;28;20021;-73
2023/09/09 11:21:46;;;;;;;4.15;2.58;;;;;;;29.41;58.80;100747.19;5177435;28;20026;-72
2023/09/09 11:24:17;;;;;;;8.95;2.90;;;;;;;29.26;56.97;100744.31;5177328;28;21345;-72
2023/09/09 11:26:49;;;;;;;4.95;2.58;;;;;;;29.41;59.27;100745.31;5178881;28;20080;-72
2023/09/09 11:29:20;;;;;;;6.82;2.95;;;;;;;29.43;59.92;100747.84;5158422;28;20495;-72
2023/09/09 11:31:50;;;;;;;5.03;2.63;;;;;;;29.30;58.70;100737.59;5178193;28;20037;-73
2023/09/09 11:34:31;;;;;;;4.22;2.53;;;;;;;29.25;58.78;100745.31;5175841;28;20642;-73
2023/09/09 11:37:03;;;;;;;5.53;2.65;;;;;;;29.19;58.98;100746.00;5167539;28;20022;-71